KLOL

Derby Field Airport

Lovelock, Nevada, USA
METAR KLOL 221353Z AUTO 00000KT 10SM BKN110 01/M07 A3003 RMK AO2 SLP170 T00111067
Observed Flight Rules
Oct-22 @ 13:53 UTC (38 minutes ago) Visual Flight Rules
Visibility Clouds
10 miles
  • Broken at 11,000' AGL
Temperatures Readings
Current 1°C / 34°F
Dewpoint -7°C / 19°F
Humidity 56%
Altimeter 30.03" Hg
Pressure 1017 hPa
Elevation 1189
METAR KLOL 221353Z AUTO 00000KT 10SM BKN110 01/M07 A3003 RMK AO2 SLP170 T00111067
Observed Flight Rules
Oct-22 @ 13:53 UTC
(38 minutes ago)
VFR
Clouds
  • Broken at 11,000' AGL
Temperature Dewpoint
1°C / 34°F -7°C / 19°F
Humidity Altimeter Pressure
56% 30.03" Hg 1017 hPa